Time;durP1;ratioP1;P1;durP2;ratioP2;P2;SDS_P1;SDS_P2;PMS_P1;PMS_P2;Temp;Humidity;BMP_temperature;BMP_pressure;BME280_temperature;BME280_humidity;BME280_pressure;Samples;Min_cycle;Max_cycle;Signal;HPM_P1;HPM_P2
2023/05/18 00:00:40;;;;;;;2.03;1.25;;;;;;;14.41;63.07;99634.91;4491902;31;33546;-62
2023/05/18 00:03:07;;;;;;;0.80;0.73;;;;;;;14.28;63.63;99629.81;4491412;31;33845;-61
2023/05/18 00:05:35;;;;;;;0.98;0.85;;;;;;;14.33;63.11;99638.31;4489803;31;33816;-62
2023/05/18 00:08:03;;;;;;;1.62;1.10;;;;;;;14.18;63.84;99634.34;4492354;31;32822;-62
2023/05/18 00:10:30;;;;;;;2.15;1.12;;;;;;;14.17;63.97;99635.34;4495964;31;34441;-61
2023/05/18 00:12:58;;;;;;;1.15;0.62;;;;;;;13.95;64.70;99634.59;4497070;31;34519;-62
2023/05/18 00:15:26;;;;;;;2.80;1.87;;;;;;;14.11;64.59;99636.75;4493650;31;34731;-62
2023/05/18 00:17:55;;;;;;;1.33;0.95;;;;;;;14.46;63.45;99643.44;4492349;31;34869;-62
2023/05/18 00:20:25;;;;;;;1.30;0.90;;;;;;;14.28;64.62;99639.72;4497499;31;32124;-61
2023/05/18 00:22:53;;;;;;;1.55;1.05;;;;;;;14.49;63.76;99636.91;4498193;31;33913;-62
2023/05/18 00:25:20;;;;;;;1.75;1.23;;;;;;;14.11;65.23;99639.44;4487801;31;34008;-61
2023/05/18 00:27:50;;;;;;;0.82;0.80;;;;;;;14.46;64.76;99643.44;4487074;31;34818;-62
2023/05/18 00:30:18;;;;;;;2.03;0.95;;;;;;;14.84;63.52;99639.03;4493027;31;34688;-62
2023/05/18 00:32:46;;;;;;;1.55;1.17;;;;;;;14.87;63.22;99634.22;4489107;31;35143;-62
2023/05/18 00:35:13;;;;;;;2.65;1.52;;;;;;;15.09;62.21;99640.25;4497613;31;33757;-62
2023/05/18 00:37:41;;;;;;;1.45;0.88;;;;;;;14.80;63.50;99640.31;4497519;31;35014;-63
2023/05/18 00:40:10;;;;;;;3.10;1.37;;;;;;;14.73;63.61;99644.56;4497614;31;33344;-62
2023/05/18 00:42:38;;;;;;;2.65;1.17;;;;;;;15.00;63.51;99647.38;4482483;31;33936;-63
2023/05/18 00:45:06;;;;;;;1.80;1.05;;;;;;;15.26;62.48;99644.03;4492882;31;33521;-62
2023/05/18 00:47:34;;;;;;;2.35;1.27;;;;;;;15.38;62.48;99635.63;4494581;31;34897;-61
2023/05/18 00:50:02;;;;;;;1.45;1.30;;;;;;;15.35;62.83;99640.47;4498258;31;33164;-62
2023/05/18 00:52:31;;;;;;;1.95;1.15;;;;;;;15.30;62.86;99640.03;4498434;31;33682;-61
2023/05/18 00:54:59;;;;;;;2.50;1.60;;;;;;;15.29;62.78;99636.50;4490060;31;33953;-62
2023/05/18 00:57:27;;;;;;;2.87;1.77;;;;;;;14.90;64.65;99649.25;4481057;31;33431;-61
2023/05/18 00:59:56;;;;;;;1.80;1.65;;;;;;;14.91;64.63;99648.25;4497327;31;33120;-63
2023/05/18 01:02:28;;;;;;;2.65;1.35;;;;;;;14.74;64.61;99643.59;4493046;31;33757;-61
2023/05/18 01:04:56;;;;;;;3.35;1.05;;;;;;;15.06;63.95;99652.19;4492651;31;33703;-61
2023/05/18 01:07:25;;;;;;;11.57;1.52;;;;;;;14.96;65.38;99659.44;4492964;31;32785;-62
2023/05/18 01:09:53;;;;;;;2.15;1.27;;;;;;;15.06;65.07;99651.34;4496419;31;34399;-63
2023/05/18 01:12:26;;;;;;;3.50;1.90;;;;;;;15.16;64.64;99648.63;4486173;31;32373;-64
2023/05/18 01:14:56;;;;;;;5.25;1.20;;;;;;;15.18;64.05;99652.84;4497013;31;34096;-64
2023/05/18 01:17:27;;;;;;;2.50;1.15;;;;;;;15.38;63.74;99662.59;4493256;31;33206;-63
2023/05/18 01:20:22;;;;;;;2.83;1.20;;;;;;;15.53;63.31;99660.25;4492922;31;32145;-64
2023/05/18 01:22:57;;;;;;;3.25;1.77;;;;;;;15.38;63.74;99659.88;4486209;31;33682;-64
2023/05/18 01:25:35;;;;;;;3.20;1.30;;;;;;;15.47;63.51;99659.97;4487829;31;34843;-64
2023/05/18 01:28:07;;;;;;;2.75;1.60;;;;;;;15.23;64.00;99668.59;4482840;31;35215;-64
2023/05/18 01:30:39;;;;;;;1.15;0.82;;;;;;;15.10;64.85;99668.91;4494672;31;34169;-64
2023/05/18 01:33:11;;;;;;;2.92;1.35;;;;;;;15.59;63.11;99662.34;4490851;31;34693;-63
2023/05/18 01:35:48;;;;;;;1.20;1.10;;;;;;;15.35;64.09;99662.88;4493546;31;35178;-63
2023/05/18 01:38:17;;;;;;;3.12;1.87;;;;;;;15.53;63.61;99665.63;4492201;31;34581;-65
2023/05/18 01:41:12;;;;;;;3.00;1.20;;;;;;;15.59;63.27;99666.91;4487935;31;32184;-64
2023/05/18 01:44:18;;;;;;;1.37;1.13;;;;;;;15.57;63.17;99672.47;4491659;31;34152;-63
2023/05/18 01:47:01;;;;;;;1.30;0.80;;;;;;;15.23;64.54;99671.28;4483043;31;33926;-63
2023/05/18 01:49:35;;;;;;;1.98;1.27;;;;;;;15.41;63.74;99671.34;4483004;31;33659;-64
2023/05/18 01:52:09;;;;;;;3.58;1.62;;;;;;;15.55;63.13;99677.12;4496841;31;33382;-63
2023/05/18 01:54:42;;;;;;;4.93;2.30;;;;;;;15.49;63.32;99676.88;4493562;31;32729;-63
2023/05/18 01:57:10;;;;;;;2.47;1.25;;;;;;;15.45;63.36;99679.03;4488733;31;34105;-64
2023/05/18 01:59:40;;;;;;;2.45;1.42;;;;;;;15.44;64.02;99681.84;4487981;31;33519;-62
2023/05/18 02:02:07;;;;;;;2.17;1.33;;;;;;;15.35;64.32;99680.91;4493319;31;33486;-63
2023/05/18 02:04:35;;;;;;;4.07;1.45;;;;;;;15.64;63.03;99685.34;4492655;31;34072;-62
2023/05/18 02:07:03;;;;;;;2.05;1.05;;;;;;;15.17;64.47;99693.44;4496323;31;33666;-63
2023/05/18 02:09:31;;;;;;;2.72;1.42;;;;;;;15.13;65.02;99690.19;4493269;31;33121;-63
2023/05/18 02:11:58;;;;;;;3.20;1.35;;;;;;;15.43;64.04;99685.56;4489982;31;34671;-63
2023/05/18 02:14:26;;;;;;;6.03;1.90;;;;;;;15.18;64.67;99692.44;4497468;31;33465;-63
2023/05/18 02:16:56;;;;;;;2.17;1.05;;;;;;;15.51;63.71;99685.69;4496024;31;34173;-63
2023/05/18 02:19:24;;;;;;;2.33;1.40;;;;;;;15.49;63.89;99693.91;4493816;31;34786;-63
2023/05/18 02:21:52;;;;;;;3.60;1.90;;;;;;;15.53;63.78;99694.47;4489919;31;34207;-63
2023/05/18 02:24:21;;;;;;;1.75;1.30;;;;;;;15.63;63.49;99697.97;4495304;31;33669;-62
2023/05/18 02:26:50;;;;;;;3.70;1.17;;;;;;;15.46;64.28;99696.91;4491941;31;35171;-63
2023/05/18 02:29:19;;;;;;;2.70;1.58;;;;;;;15.57;63.74;99695.87;4495735;31;33670;-63
2023/05/18 02:31:46;;;;;;;2.62;1.55;;;;;;;15.18;65.15;99708.59;4487128;31;32635;-63
2023/05/18 02:34:15;;;;;;;2.65;1.35;;;;;;;15.61;63.47;99703.53;4486998;31;33719;-64
2023/05/18 02:36:44;;;;;;;2.28;1.37;;;;;;;15.30;64.01;99704.75;4494855;31;34177;-63
2023/05/18 02:39:12;;;;;;;1.37;0.90;;;;;;;15.49;63.83;99703.84;4490389;31;35246;-63
2023/05/18 02:41:40;;;;;;;4.50;2.15;;;;;;;15.36;64.49;99712.25;4493298;31;33171;-64
2023/05/18 02:44:07;;;;;;;4.60;2.17;;;;;;;15.65;63.30;99701.38;4491147;31;33853;-64
2023/05/18 02:46:35;;;;;;;2.42;1.77;;;;;;;15.59;63.61;99707.34;4498124;31;34932;-64
2023/05/18 02:49:05;;;;;;;3.10;1.75;;;;;;;15.30;64.98;99715.53;4498137;31;32753;-64
2023/05/18 02:51:33;;;;;;;1.55;0.98;;;;;;;15.57;63.82;99714.78;4497639;31;33371;-63
2023/05/18 02:54:01;;;;;;;6.65;2.28;;;;;;;15.69;63.48;99710.06;4499663;31;33705;-63
2023/05/18 02:56:29;;;;;;;3.65;1.70;;;;;;;15.32;65.38;99719.81;4491187;31;34104;-63
2023/05/18 02:58:59;;;;;;;2.25;1.45;;;;;;;15.61;64.05;99706.22;4496293;31;33847;-63
2023/05/18 03:01:27;;;;;;;3.60;1.75;;;;;;;15.75;63.60;99709.47;4495222;31;33801;-63
2023/05/18 03:03:57;;;;;;;3.25;1.75;;;;;;;15.69;63.89;99707.34;4497270;31;33929;-63
2023/05/18 03:06:26;;;;;;;3.05;1.70;;;;;;;15.35;65.03;99711.41;4491747;31;33948;-63
2023/05/18 03:08:53;;;;;;;3.67;2.20;;;;;;;15.61;64.52;99705.38;4496826;31;33599;-63
2023/05/18 03:11:22;;;;;;;5.28;2.05;;;;;;;15.82;63.46;99710.56;4495998;31;33130;-63
2023/05/18 03:13:50;;;;;;;3.08;1.80;;;;;;;15.82;63.53;99708.69;4496480;31;33540;-63
2023/05/18 03:16:18;;;;;;;5.10;1.65;;;;;;;15.75;63.89;99712.16;4496927;31;35021;-63
2023/05/18 03:18:46;;;;;;;1.10;0.85;;;;;;;15.88;63.42;99712.66;4490663;31;33676;-63
2023/05/18 03:21:15;;;;;;;2.87;1.45;;;;;;;15.84;63.06;99716.66;4495020;31;32935;-63
2023/05/18 03:23:42;;;;;;;3.85;1.27;;;;;;;15.80;63.17;99715.28;4497293;31;33862;-64
2023/05/18 03:26:11;;;;;;;3.20;1.67;;;;;;;15.88;63.16;99712.66;4497312;31;33977;-62
2023/05/18 03:28:39;;;;;;;1.73;1.25;;;;;;;15.93;63.16;99718.47;4493802;31;33554;-63
2023/05/18 03:31:07;;;;;;;1.00;0.82;;;;;;;16.00;62.86;99718.72;4496345;31;33512;-63
2023/05/18 03:33:35;;;;;;;3.67;1.27;;;;;;;15.84;63.36;99722.06;4496259;31;33688;-63
2023/05/18 03:36:03;;;;;;;1.40;1.10;;;;;;;15.93;63.21;99720.34;4498111;31;34098;-63
2023/05/18 03:38:31;;;;;;;0.95;0.68;;;;;;;15.84;63.27;99725.59;4494538;31;34613;-62
2023/05/18 03:40:59;;;;;;;3.25;1.62;;;;;;;15.87;63.17;99727.16;4494307;31;34261;-63
2023/05/18 03:43:28;;;;;;;2.20;1.65;;;;;;;15.81;63.48;99725.06;4493993;31;34568;-63
2023/05/18 03:45:56;;;;;;;2.08;1.58;;;;;;;15.88;62.93;99726.16;4495184;31;34944;-63
2023/05/18 03:48:23;;;;;;;3.53;1.58;;;;;;;15.59;64.06;99728.94;4495579;31;32991;-63
2023/05/18 03:50:51;;;;;;;1.15;0.88;;;;;;;15.69;63.26;99735.19;4494598;31;34475;-62
2023/05/18 03:53:20;;;;;;;2.37;1.62;;;;;;;15.57;64.26;99728.25;4486097;31;33843;-63
2023/05/18 03:55:51;;;;;;;3.65;2.10;;;;;;;15.67;63.75;99744.44;4490043;31;34995;-62
2023/05/18 03:58:19;;;;;;;4.30;1.80;;;;;;;15.49;64.13;99738.91;4495231;31;33759;-62
2023/05/18 04:00:48;;;;;;;3.15;1.90;;;;;;;15.66;63.43;99748.09;4497119;31;33383;-63
2023/05/18 04:03:16;;;;;;;3.03;1.00;;;;;;;15.83;62.82;99752.75;4497033;31;32723;-63
2023/05/18 04:05:44;;;;;;;2.62;1.85;;;;;;;15.73;62.94;99754.63;4496558;31;34006;-63
2023/05/18 04:08:13;;;;;;;2.03;1.45;;;;;;;15.60;63.55;99750.41;4488840;31;33573;-62
2023/05/18 04:10:42;;;;;;;2.20;1.15;;;;;;;15.22;64.48;99750.50;4495088;31;33262;-63
2023/05/18 04:13:10;;;;;;;2.65;1.70;;;;;;;15.58;63.50;99754.22;4495510;31;33734;-63
2023/05/18 04:15:37;;;;;;;1.90;1.35;;;;;;;15.59;63.21;99747.81;4489787;31;34344;-64
2023/05/18 04:18:06;;;;;;;0.73;0.73;;;;;;;15.45;63.97;99757.25;4492438;31;33936;-64
2023/05/18 04:20:36;;;;;;;2.53;1.77;;;;;;;15.41;64.09;99757.66;4491632;31;32845;-64
2023/05/18 04:23:04;;;;;;;1.00;0.90;;;;;;;15.47;63.92;99752.53;4485660;31;32777;-64
2023/05/18 04:25:32;;;;;;;3.50;1.27;;;;;;;15.58;64.04;99756.94;4489579;31;33050;-63
2023/05/18 04:28:00;;;;;;;3.22;1.92;;;;;;;15.44;64.73;99762.75;4492938;31;33872;-64
2023/05/18 04:30:28;;;;;;;2.75;1.62;;;;;;;15.06;65.95;99767.25;4493914;31;32924;-64
2023/05/18 04:32:57;;;;;;;3.60;1.85;;;;;;;15.59;63.81;99766.72;4492564;31;33500;-64
2023/05/18 04:35:26;;;;;;;1.65;1.35;;;;;;;15.64;64.02;99769.00;4488574;31;35181;-64
2023/05/18 04:37:54;;;;;;;2.42;1.75;;;;;;;15.63;63.88;99770.81;4494691;31;33895;-64
2023/05/18 04:40:22;;;;;;;5.85;2.55;;;;;;;15.54;64.32;99769.88;4493766;31;34609;-64
2023/05/18 04:42:49;;;;;;;5.50;2.12;;;;;;;15.52;64.25;99771.00;4492006;31;33452;-64
2023/05/18 04:45:19;;;;;;;1.95;1.42;;;;;;;15.56;64.24;99773.25;4495873;31;35107;-64
2023/05/18 04:47:51;;;;;;;2.17;1.98;;;;;;;14.99;66.94;99772.34;4498491;31;32754;-63
2023/05/18 04:50:24;;;;;;;2.20;1.42;;;;;;;15.46;65.36;99768.88;4495126;31;33309;-64
2023/05/18 04:52:56;;;;;;;5.32;2.55;;;;;;;15.60;64.94;99768.41;4489789;31;35049;-65
2023/05/18 04:55:26;;;;;;;3.75;2.37;;;;;;;15.65;64.73;99774.22;4494064;31;35010;-64
2023/05/18 04:57:56;;;;;;;3.28;1.70;;;;;;;15.60;64.53;99773.78;4493960;31;33689;-64
2023/05/18 05:00:25;;;;;;;2.78;1.80;;;;;;;15.39;65.12;99768.59;4494555;31;33330;-65
2023/05/18 05:02:53;;;;;;;3.35;1.95;;;;;;;15.31;65.81;99776.56;4496736;31;33481;-65
2023/05/18 05:05:22;;;;;;;5.78;2.75;;;;;;;15.64;64.87;99769.00;4498145;31;35315;-64
2023/05/18 05:07:50;;;;;;;4.03;1.77;;;;;;;15.18;66.07;99784.09;4497043;31;33780;-62
2023/05/18 05:10:19;;;;;;;7.37;2.78;;;;;;;15.67;64.50;99784.91;4495905;31;34416;-63
2023/05/18 05:12:48;;;;;;;1.50;1.17;;;;;;;15.67;64.21;99782.22;4496154;31;34599;-63
2023/05/18 05:15:17;;;;;;;6.22;3.10;;;;;;;15.73;64.31;99777.09;4491633;31;34255;-62
2023/05/18 05:17:48;;;;;;;3.80;2.62;;;;;;;15.84;63.95;99787.69;4491660;31;34670;-63
2023/05/18 05:20:16;;;;;;;3.25;2.12;;;;;;;15.64;64.27;99790.56;4489360;31;33317;-63
2023/05/18 05:22:44;;;;;;;3.15;1.95;;;;;;;15.67;64.02;99787.63;4495366;31;35035;-62
2023/05/18 05:25:12;;;;;;;3.45;2.03;;;;;;;15.84;63.31;99786.84;4497057;31;34329;-63
2023/05/18 05:27:40;;;;;;;4.43;2.75;;;;;;;15.93;63.10;99785.09;4497776;31;32578;-62
2023/05/18 05:30:08;;;;;;;3.67;2.35;;;;;;;15.75;63.64;99783.16;4486359;31;35004;-63
2023/05/18 05:32:35;;;;;;;3.20;1.65;;;;;;;15.86;63.66;99792.06;4496035;31;33823;-63
2023/05/18 05:35:05;;;;;;;4.60;2.40;;;;;;;15.99;63.32;99787.22;4494121;31;33799;-63
2023/05/18 05:37:33;;;;;;;6.47;3.20;;;;;;;15.68;65.00;99795.53;4493008;31;33848;-63
2023/05/18 05:40:01;;;;;;;3.25;1.77;;;;;;;15.90;63.90;99788.94;4484932;31;33383;-63
2023/05/18 05:42:31;;;;;;;3.92;1.83;;;;;;;15.94;64.01;99795.75;4493009;31;34962;-65
2023/05/18 05:44:59;;;;;;;5.07;2.33;;;;;;;15.76;64.95;99803.78;4490362;31;34007;-63
2023/05/18 05:47:26;;;;;;;3.40;2.35;;;;;;;15.99;63.87;99796.16;4493841;31;32144;-63
2023/05/18 05:49:54;;;;;;;4.57;2.45;;;;;;;15.56;65.44;99800.22;4495401;31;33056;-63
2023/05/18 05:52:23;;;;;;;4.07;2.45;;;;;;;15.96;63.74;99799.16;4495527;31;33637;-64
2023/05/18 05:54:50;;;;;;;4.95;1.65;;;;;;;16.10;63.34;99799.66;4490453;31;33764;-63
2023/05/18 05:57:18;;;;;;;3.45;1.83;;;;;;;16.12;63.40;99800.38;4488094;31;33759;-63
2023/05/18 05:59:46;;;;;;;2.58;1.55;;;;;;;16.09;63.93;99804.22;4495530;31;33367;-63
2023/05/18 06:02:13;;;;;;;4.30;2.25;;;;;;;15.80;65.25;99812.44;4490628;31;33664;-63
2023/05/18 06:04:42;;;;;;;5.15;2.60;;;;;;;15.96;64.25;99819.91;4497088;31;34176;-62
2023/05/18 06:07:09;;;;;;;3.80;2.35;;;;;;;15.78;65.06;99814.41;4497663;31;34636;-64
2023/05/18 06:09:37;;;;;;;4.15;2.33;;;;;;;16.09;64.13;99822.28;4495286;31;32960;-63
2023/05/18 06:12:06;;;;;;;3.35;2.17;;;;;;;15.97;64.99;99821.59;4490830;31;33665;-63
2023/05/18 06:14:33;;;;;;;2.78;1.87;;;;;;;15.87;65.29;99824.31;4490860;31;34705;-64
2023/05/18 06:17:01;;;;;;;3.37;2.35;;;;;;;16.03;64.55;99829.09;4487165;31;35162;-64
2023/05/18 06:19:29;;;;;;;3.25;1.90;;;;;;;16.19;64.10;99828.47;4491428;31;33537;-64
2023/05/18 06:21:57;;;;;;;4.07;1.75;;;;;;;16.33;63.61;99821.72;4495166;31;33990;-64
2023/05/18 06:24:25;;;;;;;2.58;1.75;;;;;;;16.22;63.91;99822.78;4500007;31;35168;-64
2023/05/18 06:26:53;;;;;;;2.65;1.55;;;;;;;16.33;63.41;99825.28;4495231;31;34505;-64
2023/05/18 06:29:24;;;;;;;2.85;2.22;;;;;;;16.37;63.18;99828.53;4499100;31;33237;-65
2023/05/18 06:31:52;;;;;;;2.90;1.67;;;;;;;16.33;63.26;99835.22;4495451;31;32331;-63
2023/05/18 06:34:20;;;;;;;4.15;2.12;;;;;;;16.38;63.00;99832.94;4500386;31;35245;-64
2023/05/18 06:36:48;;;;;;;3.47;1.55;;;;;;;16.35;63.30;99841.34;4498815;31;34730;-63
2023/05/18 06:39:16;;;;;;;3.97;2.35;;;;;;;16.38;63.14;99830.25;4501213;31;31732;-64
2023/05/18 06:41:44;;;;;;;3.60;2.00;;;;;;;16.07;64.59;99844.00;4500193;31;33776;-64
2023/05/18 06:44:18;;;;;;;3.00;1.92;;;;;;;16.33;63.95;99837.94;4491064;31;33657;-63
2023/05/18 06:46:51;;;;;;;2.83;1.65;;;;;;;16.40;63.60;99847.13;4498556;31;34817;-64
2023/05/18 06:49:19;;;;;;;3.92;2.12;;;;;;;16.34;63.69;99847.72;4492737;31;34154;-63
2023/05/18 06:51:47;;;;;;;4.65;2.67;;;;;;;16.09;64.35;99839.31;4488516;31;35712;-63
2023/05/18 06:54:15;;;;;;;3.72;2.08;;;;;;;16.38;63.76;99846.44;4496882;31;34161;-63
2023/05/18 06:56:42;;;;;;;2.20;1.35;;;;;;;16.48;63.69;99860.75;4494760;31;33733;-63
2023/05/18 06:59:10;;;;;;;3.20;2.00;;;;;;;16.34;63.87;99862.13;4488481;31;34540;-63
2023/05/18 07:01:38;;;;;;;2.47;1.42;;;;;;;16.36;63.76;99865.50;4501157;31;34179;-64
2023/05/18 07:04:06;;;;;;;3.47;1.98;;;;;;;16.35;63.86;99855.69;4501514;31;34980;-63
2023/05/18 07:06:34;;;;;;;2.90;1.65;;;;;;;15.90;65.38;99863.69;4497882;31;34144;-63
2023/05/18 07:09:02;;;;;;;4.97;2.15;;;;;;;16.34;64.14;99867.50;4492744;31;33703;-63
2023/05/18 07:11:30;;;;;;;1.92;1.48;;;;;;;16.36;64.08;99862.78;4497398;31;32711;-63
2023/05/18 07:13:57;;;;;;;5.15;2.40;;;;;;;16.40;63.89;99856.09;4494666;31;33420;-63
2023/05/18 07:16:26;;;;;;;2.33;1.37;;;;;;;16.24;64.09;99870.25;4500596;31;33662;-64
2023/05/18 07:18:56;;;;;;;4.47;2.37;;;;;;;16.46;63.76;99870.84;4494060;31;34303;-63
2023/05/18 07:21:25;;;;;;;2.97;1.98;;;;;;;16.47;63.93;99865.31;4493694;31;33635;-64
2023/05/18 07:23:52;;;;;;;4.30;2.03;;;;;;;16.52;64.02;99867.56;4498615;31;32569;-64
2023/05/18 07:26:21;;;;;;;2.40;1.77;;;;;;;16.59;63.84;99867.81;4499061;31;34018;-63
2023/05/18 07:28:50;;;;;;;2.92;1.52;;;;;;;16.44;64.79;99868.31;4499863;31;33605;-64
2023/05/18 07:31:20;;;;;;;2.22;1.48;;;;;;;16.59;64.57;99878.63;4489210;31;35035;-65
2023/05/18 07:33:48;;;;;;;3.37;1.92;;;;;;;16.47;65.23;99873.41;4498085;31;33897;-65
2023/05/18 07:36:15;;;;;;;3.67;1.65;;;;;;;16.73;64.14;99875.44;4489941;31;34740;-64
2023/05/18 07:38:43;;;;;;;1.98;1.48;;;;;;;16.79;63.94;99882.09;4489017;31;33199;-64
2023/05/18 07:41:11;;;;;;;5.25;2.62;;;;;;;16.83;63.62;99887.06;4486755;31;34925;-65
2023/05/18 07:43:38;;;;;;;3.83;1.52;;;;;;;16.76;63.75;99881.41;4496492;31;33332;-65
2023/05/18 07:46:06;;;;;;;2.40;1.12;;;;;;;16.87;64.00;99888.44;4491065;31;34364;-63
2023/05/18 07:48:33;;;;;;;1.85;1.10;;;;;;;16.88;64.40;99884.72;4497742;31;34227;-63
2023/05/18 07:51:01;;;;;;;2.90;1.80;;;;;;;16.92;64.19;99896.97;4496055;31;34719;-64
2023/05/18 07:53:29;;;;;;;2.00;1.25;;;;;;;16.76;65.00;99889.50;4495980;31;35232;-63
2023/05/18 07:55:57;;;;;;;3.72;1.60;;;;;;;16.58;65.92;99885.88;4489745;31;33706;-63
2023/05/18 07:58:24;;;;;;;1.45;0.80;;;;;;;16.80;65.17;99897.31;4494515;31;32868;-65
2023/05/18 08:00:52;;;;;;;5.30;2.17;;;;;;;16.82;64.99;99892.59;4494007;31;34862;-64
2023/05/18 08:03:20;;;;;;;5.00;1.80;;;;;;;16.51;66.33;99892.88;4497104;31;33676;-63
2023/05/18 08:05:48;;;;;;;1.45;0.88;;;;;;;17.07;64.57;99894.56;4494231;31;34064;-63
2023/05/18 08:08:15;;;;;;;2.33;0.82;;;;;;;16.64;66.09;99887.13;4491293;31;34076;-64
2023/05/18 08:10:43;;;;;;;0.60;0.55;;;;;;;16.90;65.50;99885.44;4489403;31;34611;-63
2023/05/18 08:13:11;;;;;;;1.17;0.70;;;;;;;16.62;66.49;99889.13;4494283;31;34137;-64
2023/05/18 08:15:39;;;;;;;0.65;0.65;;;;;;;16.70;66.40;99892.78;4495030;31;33720;-63
2023/05/18 08:18:07;;;;;;;1.35;0.73;;;;;;;17.04;64.70;99892.16;4492190;31;34631;-64
2023/05/18 08:20:35;;;;;;;2.00;0.80;;;;;;;16.99;65.12;99908.03;4492142;31;33889;-65
2023/05/18 08:23:02;;;;;;;0.85;0.70;;;;;;;16.99;65.39;99902.63;4490255;31;33960;-64
2023/05/18 08:25:30;;;;;;;0.75;0.50;;;;;;;17.16;64.83;99906.34;4495099;31;32748;-65
2023/05/18 08:27:58;;;;;;;0.75;0.50;;;;;;;16.90;64.63;99909.78;4489698;31;34528;-65
2023/05/18 08:30:26;;;;;;;0.47;0.47;;;;;;;16.75;65.15;99911.28;4494120;31;33695;-65
2023/05/18 08:32:55;;;;;;;0.40;0.40;;;;;;;16.73;65.88;99906.00;4491634;31;33980;-66
2023/05/18 08:35:23;;;;;;;0.75;0.50;;;;;;;17.02;64.45;99910.41;4496661;31;34687;-67
2023/05/18 08:37:51;;;;;;;0.52;0.45;;;;;;;16.86;65.37;99908.38;4495108;31;33465;-66
2023/05/18 08:40:19;;;;;;;0.75;0.40;;;;;;;16.61;65.68;99909.03;4506835;31;33589;-67
2023/05/18 08:43:04;;;;;;;0.40;0.40;;;;;;;16.67;65.30;99912.00;4502031;31;33833;-67
2023/05/18 08:45:41;;;;;;;1.87;0.60;;;;;;;16.94;64.28;99910.31;4488297;31;34081;-67
2023/05/18 08:48:10;;;;;;;4.57;1.45;;;;;;;16.46;66.98;99917.63;4498873;31;33392;-66
2023/05/18 08:50:40;;;;;;;4.32;1.17;;;;;;;16.78;66.18;99910.97;4494318;31;33736;-66
2023/05/18 08:53:09;;;;;;;3.40;1.80;;;;;;;16.56;67.09;99920.28;4496559;31;33923;-66
2023/05/18 08:55:37;;;;;;;2.37;1.25;;;;;;;16.76;66.67;99913.00;4491063;31;32287;-65
2023/05/18 08:58:06;;;;;;;2.17;0.98;;;;;;;17.20;65.01;99911.28;4495684;31;33109;-65
2023/05/18 09:00:34;;;;;;;0.52;0.40;;;;;;;17.13;64.89;99909.34;4487908;31;33679;-65
2023/05/18 09:03:04;;;;;;;1.85;0.75;;;;;;;17.16;64.75;99909.87;4493155;31;33649;-65
2023/05/18 09:05:32;;;;;;;0.30;0.30;;;;;;;17.34;64.00;99909.91;4491210;31;32377;-66
2023/05/18 09:08:02;;;;;;;0.40;0.40;;;;;;;17.12;64.81;99907.66;4495832;31;33977;-67
2023/05/18 09:10:31;;;;;;;0.32;0.32;;;;;;;17.33;64.24;99912.75;4496928;31;33631;-67
2023/05/18 09:13:01;;;;;;;1.20;0.77;;;;;;;17.23;64.00;99910.13;4489865;31;33243;-65
2023/05/18 09:15:29;;;;;;;0.77;0.40;;;;;;;16.76;65.92;99907.59;4493883;31;33830;-66
2023/05/18 09:17:56;;;;;;;0.80;0.80;;;;;;;17.21;64.53;99902.19;4494769;31;32953;-65
2023/05/18 09:20:25;;;;;;;0.35;0.30;;;;;;;17.05;65.12;99906.56;4496106;31;34830;-66
2023/05/18 09:22:52;;;;;;;0.52;0.40;;;;;;;16.90;65.97;99909.78;4496699;31;34408;-66
2023/05/18 09:25:20;;;;;;;0.77;0.65;;;;;;;17.12;65.08;99913.91;4490439;31;33815;-64
2023/05/18 09:27:48;;;;;;;0.30;0.30;;;;;;;17.34;64.67;99917.19;4483193;31;34583;-65
2023/05/18 09:30:16;;;;;;;0.70;0.55;;;;;;;17.26;64.10;99915.22;4497378;31;34730;-65
2023/05/18 09:32:46;;;;;;;0.28;0.28;;;;;;;17.08;64.79;99920.62;4488233;31;33973;-66
2023/05/18 09:35:14;;;;;;;0.37;0.30;;;;;;;16.89;64.94;99918.91;4489755;31;33899;-64
2023/05/18 09:37:42;;;;;;;0.20;0.20;;;;;;;16.35;67.00;99917.81;4485227;31;33643;-65
2023/05/18 09:40:10;;;;;;;0.62;0.35;;;;;;;16.84;65.43;99920.34;4484742;31;33806;-64
2023/05/18 09:42:40;;;;;;;0.30;0.30;;;;;;;16.65;66.75;99922.09;4491984;31;34118;-65
2023/05/18 09:45:16;;;;;;;0.77;0.50;;;;;;;16.53;67.57;99924.16;4492383;31;33907;-64
2023/05/18 09:47:45;;;;;;;0.37;0.37;;;;;;;16.87;65.07;99925.44;4491735;31;33256;-64
2023/05/18 09:50:13;;;;;;;0.45;0.45;;;;;;;16.68;66.63;99931.75;4493934;31;34645;-66
2023/05/18 09:52:42;;;;;;;0.88;0.60;;;;;;;17.00;66.22;99920.53;4498807;31;35049;-66
2023/05/18 09:55:10;;;;;;;0.75;0.70;;;;;;;17.15;65.67;99926.28;4498067;31;34112;-65
2023/05/18 09:57:41;;;;;;;1.25;0.90;;;;;;;17.23;65.85;99923.66;4497296;31;34385;-65
2023/05/18 10:00:10;;;;;;;0.75;0.75;;;;;;;17.25;64.68;99924.34;4483547;31;33706;-66
2023/05/18 10:02:46;;;;;;;0.88;0.77;;;;;;;17.03;65.64;99924.78;4488045;31;34312;-66
2023/05/18 10:05:19;;;;;;;1.35;0.98;;;;;;;17.20;64.66;99926.66;4492135;31;33548;-66
2023/05/18 10:07:47;;;;;;;0.62;0.62;;;;;;;17.04;64.93;99927.31;4492782;31;33374;-65
2023/05/18 10:10:19;;;;;;;0.47;0.40;;;;;;;16.84;65.47;99928.44;4486978;31;33570;-65
2023/05/18 10:12:49;;;;;;;1.20;0.52;;;;;;;17.19;63.90;99925.81;4491532;31;35155;-66
2023/05/18 10:15:21;;;;;;;2.12;0.60;;;;;;;16.91;66.43;99930.38;4493679;31;34720;-66
2023/05/18 10:17:50;;;;;;;1.65;1.30;;;;;;;17.34;64.80;99926.13;4490696;31;34198;-66
2023/05/18 10:20:21;;;;;;;1.20;0.62;;;;;;;17.58;64.22;99930.06;4487872;31;35046;-66
2023/05/18 10:22:49;;;;;;;1.35;0.90;;;;;;;17.49;64.27;99929.12;4489797;31;33855;-65
2023/05/18 10:25:19;;;;;;;10.77;1.02;;;;;;;17.65;64.30;99933.84;4496855;31;33896;-66
2023/05/18 10:27:48;;;;;;;0.80;0.40;;;;;;;17.80;63.77;99929.62;4483071;31;34810;-66
2023/05/18 10:30:19;;;;;;;1.12;0.52;;;;;;;17.68;64.67;99928.12;4488374;31;35069;-66
2023/05/18 10:32:47;;;;;;;0.45;0.37;;;;;;;17.56;65.63;99934.78;4486861;31;35286;-65
2023/05/18 10:35:15;;;;;;;1.27;0.70;;;;;;;17.60;65.68;99928.91;4494541;31;35136;-65
2023/05/18 10:37:48;;;;;;;0.62;0.60;;;;;;;17.48;65.81;99923.91;4492640;31;34027;-65
2023/05/18 10:40:16;;;;;;;1.10;0.85;;;;;;;17.38;65.32;99924.81;4494286;31;34206;-66
2023/05/18 10:42:44;;;;;;;0.73;0.65;;;;;;;16.87;67.46;99920.03;4494847;31;33967;-66
2023/05/18 10:45:13;;;;;;;0.62;0.62;;;;;;;17.03;67.09;99928.34;4490180;31;35014;-65
2023/05/18 10:47:42;;;;;;;1.35;0.95;;;;;;;17.16;66.22;99933.37;4494479;31;32749;-66
2023/05/18 10:50:10;;;;;;;5.32;0.95;;;;;;;16.90;67.94;99931.41;4484123;31;33667;-65
2023/05/18 10:52:39;;;;;;;1.20;0.85;;;;;;;16.94;67.81;99930.09;4489639;31;35289;-66
2023/05/18 10:55:07;;;;;;;0.95;0.65;;;;;;;17.04;67.33;99921.91;4483566;31;33727;-66
2023/05/18 10:57:56;;;;;;;1.05;0.90;;;;;;;16.83;67.25;99922.19;4487101;31;32985;-66
2023/05/18 11:00:23;;;;;;;2.80;0.77;;;;;;;16.52;68.59;99922.44;4483797;31;34453;-66
2023/05/18 11:02:51;;;;;;;0.98;0.65;;;;;;;16.70;67.50;99927.06;4488753;31;34155;-66
2023/05/18 11:05:23;;;;;;;0.73;0.60;;;;;;;17.00;66.69;99925.94;4486483;31;33442;-65
2023/05/18 11:08:03;;;;;;;1.40;0.70;;;;;;;17.03;66.96;99924.78;4496244;31;33360;-64
2023/05/18 11:10:41;;;;;;;0.75;0.57;;;;;;;16.92;66.76;99924.00;4499751;31;33398;-64
2023/05/18 11:13:12;;;;;;;1.17;0.85;;;;;;;17.06;66.96;99929.88;4488420;31;33812;-64
2023/05/18 11:15:51;;;;;;;1.12;0.77;;;;;;;17.52;65.54;99931.53;4490572;31;34086;-64
2023/05/18 11:18:25;;;;;;;1.73;0.75;;;;;;;17.39;66.45;99933.78;4490341;31;32052;-64
2023/05/18 11:20:53;;;;;;;0.98;0.43;;;;;;;17.05;66.70;99926.34;4493999;31;34046;-64
2023/05/18 11:23:22;;;;;;;2.00;0.90;;;;;;;17.15;66.49;99931.69;4499538;31;34010;-64
2023/05/18 11:25:50;;;;;;;1.35;0.93;;;;;;;17.41;65.01;99932.63;4501035;31;33730;-63
2023/05/18 11:28:20;;;;;;;1.77;0.65;;;;;;;17.63;64.62;99941.31;4498744;31;34564;-63
2023/05/18 11:30:49;;;;;;;1.02;0.62;;;;;;;17.63;64.62;99938.59;4493192;31;32980;-63
2023/05/18 11:33:28;;;;;;;0.90;0.88;;;;;;;17.56;64.05;99940.19;4496401;31;34902;-63
2023/05/18 11:35:56;;;;;;;1.65;0.85;;;;;;;17.58;64.93;99940.91;4487666;31;34041;-63
2023/05/18 11:38:47;;;;;;;0.50;0.50;;;;;;;17.35;65.98;99941.34;4490710;31;33199;-63
2023/05/18 11:41:34;;;;;;;0.55;0.50;;;;;;;17.23;66.19;99940.72;4482603;31;34620;-63
2023/05/18 11:44:10;;;;;;;1.45;0.75;;;;;;;17.35;66.57;99940.50;4494981;31;32329;-63